Time;durP1;ratioP1;P1;durP2;ratioP2;P2;SDS_P1;SDS_P2;PMS_P1;PMS_P2;Temp;Humidity;BMP_temperature;BMP_pressure;BME280_temperature;BME280_humidity;BME280_pressure;Samples;Min_cycle;Max_cycle;Signal;HPM_P1;HPM_P2
2023/10/10 00:01:48;;;;;;;15.32;5.85;;;;;;;13.06;98.65;101203.44;4898557;29;20552;-68
2023/10/10 00:04:54;;;;;;;12.15;6.43;;;;;;;13.07;98.93;101197.25;4898492;29;20048;-68
2023/10/10 00:08:00;;;;;;;10.98;5.22;;;;;;;13.13;98.71;101191.69;4898304;29;20533;-68
2023/10/10 00:11:09;;;;;;;16.55;6.18;;;;;;;13.06;99.18;101200.81;4898151;29;20044;-69
2023/10/10 00:14:18;;;;;;;13.02;5.65;;;;;;;13.11;99.34;101192.69;4898545;29;20127;-68
2023/10/10 00:17:21;;;;;;;11.40;5.97;;;;;;;13.08;99.65;101196.34;4898292;29;20445;-68
2023/10/10 00:20:29;;;;;;;10.68;6.60;;;;;;;13.02;99.97;101197.50;4898109;29;20088;-68
2023/10/10 00:23:44;;;;;;;12.35;6.68;;;;;;;13.05;100.00;101196.50;4898074;29;20104;-68
2023/10/10 00:26:48;;;;;;;14.18;6.30;;;;;;;13.02;100.00;101200.13;4898099;29;20047;-68
2023/10/10 00:29:51;;;;;;;10.07;6.60;;;;;;;13.02;100.00;101204.53;4898067;29;20103;-68
2023/10/10 00:32:54;;;;;;;13.65;6.50;;;;;;;12.97;100.00;101196.03;4897985;29;20048;-68
2023/10/10 00:35:59;;;;;;;16.77;7.10;;;;;;;12.98;100.00;101205.59;4897865;29;20043;-68
2023/10/10 00:42:19;;;;;;;14.23;6.18;;;;;;;13.01;100.00;101198.41;4897918;29;20413;-68
2023/10/10 00:45:24;;;;;;;16.67;6.60;;;;;;;12.98;100.00;101192.47;4897739;29;20047;-68
2023/10/10 00:48:29;;;;;;;18.00;6.80;;;;;;;12.95;100.00;101193.47;4897702;29;20040;-68
2023/10/10 00:51:33;;;;;;;13.07;6.10;;;;;;;12.92;100.00;101188.41;4886007;29;20071;-68
2023/10/10 00:54:43;;;;;;;14.70;6.18;;;;;;;12.82;100.00;101191.56;4897342;29;20059;-68
2023/10/10 00:57:46;;;;;;;13.55;6.07;;;;;;;12.84;100.00;101185.31;4897594;29;20067;-68
2023/10/10 01:00:52;;;;;;;14.88;6.47;;;;;;;12.80;100.00;101186.41;4897579;29;20123;-68
2023/10/10 01:03:57;;;;;;;14.35;6.72;;;;;;;12.87;100.00;101176.44;4897452;29;20063;-68
2023/10/10 01:07:03;;;;;;;11.57;5.80;;;;;;;12.90;100.00;101179.75;4897406;29;20048;-68
2023/10/10 01:10:16;;;;;;;16.13;7.63;;;;;;;12.89;100.00;101174.56;4885964;29;20071;-68
2023/10/10 01:13:20;;;;;;;20.08;7.55;;;;;;;12.97;100.00;101167.16;4897196;29;20064;-68
2023/10/10 01:16:24;;;;;;;19.10;6.22;;;;;;;12.96;100.00;101168.09;4897568;29;20056;-68
2023/10/10 01:19:30;;;;;;;13.00;6.75;;;;;;;12.91;100.00;101173.56;4897314;29;20043;-68
2023/10/10 01:22:46;;;;;;;15.07;6.30;;;;;;;12.97;100.00;101167.16;4897495;29;20522;-68
2023/10/10 01:25:50;;;;;;;15.15;6.03;;;;;;;12.98;100.00;101161.81;4897263;29;20099;-68
2023/10/10 01:28:53;;;;;;;16.48;6.45;;;;;;;12.96;100.00;101173.34;4897228;29;20096;-69
2023/10/10 01:31:58;;;;;;;;;;;;;;;12.94;100.00;101162.06;4897612;29;20051;-69
2023/10/10 01:35:09;;;;;;;17.70;7.43;;;;;;;12.96;100.00;101160.22;4897247;29;20300;-69
2023/10/10 01:38:34;;;;;;;18.40;6.93;;;;;;;12.84;100.00;101156.47;4885549;29;20064;-69
2023/10/10 01:41:40;;;;;;;15.07;7.22;;;;;;;12.91;100.00;101159.59;4897415;29;20073;-68
2023/10/10 01:44:45;;;;;;;21.50;7.03;;;;;;;12.81;100.00;101156.63;4885593;29;20044;-68
2023/10/10 01:47:57;;;;;;;;;;;;;;;12.75;100.00;101155.16;4885889;29;20043;-68
2023/10/10 01:51:00;;;;;;;18.50;6.82;;;;;;;12.78;100.00;101155.00;4885465;29;20279;-68
2023/10/10 01:54:12;;;;;;;16.48;6.40;;;;;;;12.78;100.00;101160.25;4897011;29;20180;-68
2023/10/10 01:57:21;;;;;;;14.60;5.68;;;;;;;12.70;100.00;101154.56;4896998;29;20424;-68
2023/10/10 02:03:27;;;;;;;;;;;;;;;12.75;100.00;101152.53;4885814;29;20052;-68
2023/10/10 02:06:34;;;;;;;;;;;;;;;12.74;100.00;101152.63;4897697;29;19926;-68
2023/10/10 02:09:40;;;;;;;19.40;5.70;;;;;;;12.76;100.00;101151.63;4900520;29;20032;-68
2023/10/10 02:12:46;;;;;;;13.07;5.25;;;;;;;12.70;100.00;101149.31;4888663;29;20202;-68
2023/10/10 02:15:49;;;;;;;9.95;4.95;;;;;;;12.63;100.00;101158.38;4888781;29;20108;-68
2023/10/10 02:18:54;;;;;;;9.07;5.32;;;;;;;12.65;100.00;101160.94;4900322;29;20099;-68
2023/10/10 02:22:22;;;;;;;14.25;5.75;;;;;;;12.64;100.00;101157.47;4888859;29;20054;-68
2023/10/10 02:28:48;;;;;;;13.52;5.82;;;;;;;12.56;100.00;101154.38;4900261;29;20044;-68
2023/10/10 02:31:56;;;;;;;12.75;5.53;;;;;;;12.54;100.00;101162.34;4888491;29;20052;-68
2023/10/10 02:35:46;;;;;;;12.27;5.53;;;;;;;12.55;100.00;101161.41;4900330;29;20107;-68
2023/10/10 02:38:40;;;;;;;13.07;5.28;;;;;;;12.59;100.00;101159.47;4900120;29;20081;-69
2023/10/10 02:41:51;;;;;;;16.27;5.30;;;;;;;12.46;100.00;101159.25;4900035;29;20111;-68
2023/10/10 02:44:57;;;;;;;13.85;5.35;;;;;;;12.45;100.00;101156.72;4899928;29;20528;-68
2023/10/10 02:48:06;;;;;;;28.23;5.13;;;;;;;12.46;100.00;101158.41;4888215;29;20039;-68
2023/10/10 02:51:15;;;;;;;18.58;6.50;;;;;;;12.41;100.00;101149.91;4888101;29;20112;-68
2023/10/10 02:54:34;;;;;;;17.17;5.35;;;;;;;12.44;100.00;101155.00;4899801;29;20469;-68
2023/10/10 02:57:39;;;;;;;10.15;5.82;;;;;;;12.40;100.00;101161.34;4899621;29;20413;-68
2023/10/10 03:00:47;;;;;;;19.15;6.43;;;;;;;12.47;100.00;101158.31;4899638;29;20135;-68
2023/10/10 03:03:54;;;;;;;10.90;4.80;;;;;;;12.45;100.00;101161.97;4887841;29;20421;-68
2023/10/10 03:06:58;;;;;;;10.20;5.28;;;;;;;12.40;100.00;101158.72;4887871;29;20047;-68
2023/10/10 03:10:22;;;;;;;15.85;5.38;;;;;;;12.47;100.00;101162.72;4887646;29;20413;-68
2023/10/10 03:16:45;;;;;;;11.25;5.78;;;;;;;12.36;100.00;101165.03;4887663;29;20457;-68
2023/10/10 03:19:50;;;;;;;13.70;5.60;;;;;;;12.45;100.00;101161.97;4886720;29;20052;-68
2023/10/10 03:26:18;;;;;;;22.35;5.30;;;;;;;12.38;100.00;101166.66;4887512;29;20103;-68
2023/10/10 03:29:36;;;;;;;18.08;5.40;;;;;;;12.33;100.00;101153.75;4887551;29;20566;-68
2023/10/10 03:32:59;;;;;;;17.85;6.50;;;;;;;12.34;100.00;101162.47;4887794;29;20482;-68
2023/10/10 03:39:41;;;;;;;14.00;5.53;;;;;;;12.26;100.00;101162.88;4887381;29;20584;-68
2023/10/10 05:23:50;;;;;;;8.87;4.93;;;;;;;12.07;100.00;101146.34;4878646;29;20055;-70
2023/10/10 05:26:56;;;;;;;26.40;5.85;;;;;;;12.04;100.00;101154.34;4878731;29;20830;-70
2023/10/10 05:30:01;;;;;;;15.32;5.82;;;;;;;11.98;100.00;101146.78;4878587;29;20052;-69
2023/10/10 05:33:04;;;;;;;9.82;5.53;;;;;;;12.01;100.00;101160.59;4878557;29;20051;-69
2023/10/10 05:36:08;;;;;;;7.18;5.50;;;;;;;12.00;100.00;101155.44;4878572;29;20199;-69
2023/10/10 05:39:17;;;;;;;12.23;5.25;;;;;;;11.98;100.00;101152.88;4878594;29;20069;-69
2023/10/10 05:42:25;;;;;;;11.75;5.15;;;;;;;11.92;100.00;101158.41;4880528;29;20065;-69
2023/10/10 05:45:31;;;;;;;7.70;4.38;;;;;;;11.90;100.00;101159.38;4881434;29;20136;-69
2023/10/10 05:48:35;;;;;;;27.95;5.55;;;;;;;11.91;100.00;101158.50;4880572;29;20063;-70
2023/10/10 05:51:40;;;;;;;15.20;5.88;;;;;;;11.91;100.00;101163.72;4880837;29;20048;-70
2023/10/10 05:54:43;;;;;;;13.95;5.13;;;;;;;11.91;100.00;101163.72;4880737;29;20518;-70
2023/10/10 05:57:47;;;;;;;7.13;4.85;;;;;;;11.98;100.00;101158.09;4880875;29;20089;-69
2023/10/10 06:00:51;;;;;;;36.38;6.20;;;;;;;11.74;100.00;101152.25;4880536;29;20047;-69
2023/10/10 06:03:56;;;;;;;30.70;5.00;;;;;;;11.47;100.00;101150.91;4880549;29;20140;-69
2023/10/10 06:06:59;;;;;;;15.88;4.65;;;;;;;11.35;100.00;101155.75;4880582;29;20120;-69
2023/10/10 06:10:06;;;;;;;9.02;4.28;;;;;;;11.44;100.00;101151.03;4880491;29;20080;-68
2023/10/10 06:13:11;;;;;;;7.10;5.00;;;;;;;11.67;100.00;101156.06;4880322;29;20089;-68
2023/10/10 06:16:17;;;;;;;18.77;5.15;;;;;;;11.78;100.00;101161.66;4880247;29;20363;-68
2023/10/10 06:19:20;;;;;;;7.47;4.90;;;;;;;11.83;100.00;101164.88;4880395;29;20736;-68
2023/10/10 06:22:24;;;;;;;12.52;5.53;;;;;;;11.68;100.00;101176.09;4880540;29;20261;-69
2023/10/10 06:25:29;;;;;;;8.13;4.80;;;;;;;11.81;100.00;101169.38;4880616;29;20112;-69
2023/10/10 06:28:53;;;;;;;8.68;5.00;;;;;;;11.91;100.00;101171.59;4880158;29;20417;-68
2023/10/10 06:31:59;;;;;;;13.90;4.53;;;;;;;11.82;100.00;101171.06;4880099;29;20143;-69
2023/10/10 06:38:24;;;;;;;10.73;4.22;;;;;;;11.84;100.00;101171.88;4879925;29;20104;-70
2023/10/10 06:41:34;;;;;;;7.10;4.07;;;;;;;11.92;100.00;101175.91;4880298;29;20096;-69
2023/10/10 06:44:39;;;;;;;12.90;4.95;;;;;;;11.95;100.00;101171.34;4880385;29;20055;-69
2023/10/10 06:47:44;;;;;;;8.38;4.82;;;;;;;11.95;100.00;101173.97;4880169;29;20097;-68
2023/10/10 06:50:50;;;;;;;9.07;4.70;;;;;;;12.02;100.00;101179.78;4879995;29;20465;-69
2023/10/10 06:53:54;;;;;;;5.95;4.40;;;;;;;11.99;100.00;101183.38;4879731;29;20060;-69
2023/10/10 07:00:20;;;;;;;9.13;5.18;;;;;;;11.99;100.00;101170.28;4879827;29;20048;-69
2023/10/10 07:03:30;;;;;;;9.13;4.03;;;;;;;11.97;100.00;101166.06;4878924;29;20104;-69
2023/10/10 07:06:33;;;;;;;7.65;3.50;;;;;;;11.97;100.00;101172.16;4879696;29;20176;-69
2023/10/10 07:09:37;;;;;;;26.67;5.05;;;;;;;11.68;100.00;101170.88;4879871;29;20047;-65
2023/10/10 07:12:40;;;;;;;7.80;4.50;;;;;;;11.70;100.00;101161.16;4879466;29;20056;-69
2023/10/10 07:15:51;;;;;;;;;;;;;;;11.76;100.00;101173.13;4880407;29;20421;-66
2023/10/10 07:18:56;;;;;;;6.82;4.07;;;;;;;11.71;100.00;101160.25;4879875;29;19926;-65
2023/10/10 07:21:59;;;;;;;10.30;5.10;;;;;;;11.68;100.00;101159.50;4879841;29;20475;-67
2023/10/10 07:25:07;;;;;;;7.15;4.45;;;;;;;11.81;100.00;101165.91;4879885;29;20124;-65
2023/10/10 07:28:14;;;;;;;17.02;5.10;;;;;;;11.97;100.00;101166.06;4879546;29;20487;-65
2023/10/10 07:31:17;;;;;;;11.57;5.20;;;;;;;11.80;100.00;101167.66;4879679;29;20061;-65
2023/10/10 07:34:34;;;;;;;6.53;4.22;;;;;;;11.75;100.00;101160.94;4867765;29;20132;-66
2023/10/10 07:37:38;;;;;;;4.72;3.80;;;;;;;11.73;100.00;101163.63;4879486;29;20092;-66
2023/10/10 07:40:42;;;;;;;5.10;3.75;;;;;;;11.78;100.00;101161.66;4879429;29;20514;-68
2023/10/10 07:43:49;;;;;;;6.25;4.40;;;;;;;11.82;100.00;101164.97;4879573;29;20075;-66
2023/10/10 07:47:11;;;;;;;5.03;4.07;;;;;;;11.88;100.00;101158.63;4879476;29;20105;-64
2023/10/10 07:50:18;;;;;;;5.22;3.75;;;;;;;11.94;100.00;101161.81;4879060;29;20056;-64
2023/10/10 07:53:28;;;;;;;7.47;4.82;;;;;;;11.97;100.00;101159.03;4879487;29;20074;-64
2023/10/10 07:56:31;;;;;;;7.85;5.63;;;;;;;12.06;100.00;101155.09;4879142;29;20465;-66
2023/10/10 07:59:36;;;;;;;;;;;;;;;11.93;100.00;101159.25;4879695;29;20052;-65
2023/10/10 08:02:39;;;;;;;10.45;7.78;;;;;;;12.10;100.00;101151.44;4878957;29;19923;-63
2023/10/10 08:05:43;;;;;;;7.18;5.18;;;;;;;12.18;100.00;101149.28;4878446;29;20598;-69
2023/10/10 08:08:56;;;;;;;14.73;7.43;;;;;;;12.32;100.00;101146.84;4878634;29;20059;-69
2023/10/10 08:12:05;;;;;;;9.45;7.03;;;;;;;12.33;100.00;101145.91;4877733;29;20516;-69
2023/10/10 08:15:24;;;;;;;9.98;6.85;;;;;;;12.56;100.00;101147.38;4878372;29;20079;-69
2023/10/10 08:18:49;;;;;;;9.43;6.00;;;;;;;12.79;100.00;101146.22;4877362;29;20131;-69
2023/10/10 08:21:52;;;;;;;8.88;5.03;;;;;;;12.99;100.00;101146.94;4878431;29;20105;-69
2023/10/10 08:24:56;;;;;;;10.63;5.30;;;;;;;13.05;100.00;101146.63;4878363;29;20055;-68
2023/10/10 08:28:00;;;;;;;9.60;5.50;;;;;;;13.15;100.00;101147.84;4878503;29;20047;-68
2023/10/10 08:31:03;;;;;;;7.97;5.85;;;;;;;13.25;100.00;101135.94;4878386;29;20060;-68
2023/10/10 08:34:09;;;;;;;9.32;5.47;;;;;;;13.31;100.00;101141.81;4878100;29;20069;-68
2023/10/10 08:37:15;;;;;;;10.38;5.20;;;;;;;13.39;100.00;101134.34;4878232;29;20540;-69
2023/10/10 08:40:22;;;;;;;8.57;5.45;;;;;;;13.50;100.00;101137.25;4877893;29;20489;-68
2023/10/10 08:43:31;;;;;;;7.20;4.80;;;;;;;13.61;100.00;101126.97;4878048;29;20082;-69
2023/10/10 08:46:49;;;;;;;8.50;4.65;;;;;;;13.73;100.00;101128.09;4878093;29;20162;-68
2023/10/10 08:49:52;;;;;;;7.05;5.28;;;;;;;13.82;100.00;101129.34;4878259;29;20060;-68
2023/10/10 08:52:56;;;;;;;10.30;4.97;;;;;;;13.95;100.00;101127.72;4877908;29;20426;-68
2023/10/10 08:55:59;;;;;;;8.07;4.40;;;;;;;14.03;100.00;101129.91;4877313;29;20109;-68
2023/10/10 08:59:03;;;;;;;6.97;4.75;;;;;;;14.08;100.00;101123.47;4877842;29;20065;-68
2023/10/10 09:02:08;;;;;;;7.43;4.78;;;;;;;14.12;100.00;101118.88;4877744;29;20079;-69
2023/10/10 09:05:14;;;;;;;6.03;4.70;;;;;;;14.15;100.00;101114.28;4866239;29;20454;-69
2023/10/10 09:08:26;;;;;;;9.45;4.70;;;;;;;14.21;100.00;101112.22;4877698;29;20369;-69
2023/10/10 09:11:29;;;;;;;6.53;4.47;;;;;;;14.29;100.00;101115.25;4877662;29;20112;-69
2023/10/10 09:14:41;;;;;;;7.78;4.78;;;;;;;14.40;100.00;101107.59;4877442;29;20056;-69
2023/10/10 09:17:46;;;;;;;8.88;4.82;;;;;;;14.56;100.00;101108.41;4877350;29;20101;-69
2023/10/10 09:20:50;;;;;;;8.63;5.15;;;;;;;14.64;100.00;101114.06;4877635;29;20048;-69
2023/10/10 09:24:25;;;;;;;11.20;4.47;;;;;;;14.76;100.00;101104.56;4877840;29;20421;-68
2023/10/10 09:27:35;;;;;;;7.80;4.43;;;;;;;15.07;100.00;101100.06;4877912;29;20044;-68
2023/10/10 09:30:58;;;;;;;8.00;4.70;;;;;;;15.31;100.00;101110.84;4877976;29;20116;-68
2023/10/10 09:34:03;;;;;;;12.57;4.72;;;;;;;15.41;100.00;101097.94;4877643;29;20055;-70
2023/10/10 09:37:10;;;;;;;11.73;3.92;;;;;;;15.55;100.00;101092.66;4877451;29;20075;-69
2023/10/10 09:40:16;;;;;;;8.82;4.72;;;;;;;15.65;100.00;101088.47;4877630;29;20142;-67
2023/10/10 09:43:35;;;;;;;8.63;4.65;;;;;;;15.70;99.64;101088.22;4877763;29;20084;-70
2023/10/10 09:53:26;;;;;;;7.18;4.55;;;;;;;16.01;97.37;101087.88;4877228;29;20084;-69
2023/10/10 09:56:31;;;;;;;10.90;4.50;;;;;;;16.12;96.01;101078.44;4877317;29;20097;-68
2023/10/10 09:59:37;;;;;;;9.15;4.57;;;;;;;16.18;94.94;101080.66;4877531;29;20082;-68
2023/10/10 10:02:48;;;;;;;8.38;4.57;;;;;;;16.27;94.46;101070.34;4877476;29;20569;-68
2023/10/10 10:06:05;;;;;;;9.10;4.88;;;;;;;16.45;96.05;101073.50;4877282;29;20442;-68
2023/10/10 10:09:38;;;;;;;8.68;5.20;;;;;;;16.62;95.70;101063.56;4876004;29;20112;-69
2023/10/10 10:12:50;;;;;;;7.93;4.97;;;;;;;16.72;93.17;101065.50;4877107;29;20478;-70
2023/10/10 10:15:54;;;;;;;6.50;4.45;;;;;;;16.90;95.23;101062.53;4877249;29;20415;-69
2023/10/10 10:19:11;;;;;;;10.15;5.22;;;;;;;17.07;95.50;101066.63;4877084;29;20073;-69
2023/10/10 10:22:18;;;;;;;12.32;5.00;;;;;;;17.19;95.43;101053.38;4877137;29;20079;-69
2023/10/10 10:25:25;;;;;;;7.35;4.65;;;;;;;17.32;94.45;101053.34;4865313;29;20097;-69
2023/10/10 10:28:28;;;;;;;7.93;4.65;;;;;;;17.42;93.93;101050.88;4878859;29;20040;-71
2023/10/10 10:31:35;;;;;;;8.80;4.43;;;;;;;17.64;92.55;101052.81;4880827;29;20047;-63
2023/10/10 10:34:45;;;;;;;8.52;5.32;;;;;;;17.84;90.23;101052.22;4880777;29;20142;-63
2023/10/10 10:37:58;;;;;;;7.78;4.78;;;;;;;18.01;89.45;101048.31;4880400;29;20139;-63
2023/10/10 10:41:16;;;;;;;8.20;5.20;;;;;;;18.12;87.90;101047.47;4880600;29;20577;-63
2023/10/10 10:44:47;;;;;;;6.80;4.55;;;;;;;18.28;89.54;101048.03;4880456;29;20447;-63
2023/10/10 10:47:59;;;;;;;13.27;5.57;;;;;;;18.38;90.76;101042.00;4880168;29;20105;-70
2023/10/10 10:51:22;;;;;;;11.63;5.32;;;;;;;18.38;89.63;101047.31;4880155;29;20080;-70
2023/10/10 10:54:37;;;;;;;9.85;5.20;;;;;;;18.47;90.70;101046.59;4880109;29;20060;-70
2023/10/10 10:57:44;;;;;;;10.60;5.63;;;;;;;18.47;85.23;101038.66;4879933;29;20060;-70
2023/10/10 11:04:05;;;;;;;11.38;5.40;;;;;;;18.65;89.10;101029.28;4879555;29;20569;-69
2023/10/10 11:07:10;;;;;;;10.07;5.25;;;;;;;18.70;83.48;101023.66;4879701;29;20048;-69
2023/10/10 11:10:35;;;;;;;15.95;5.28;;;;;;;18.86;87.94;101026.78;4879376;29;20055;-69
2023/10/10 11:13:38;;;;;;;9.00;5.03;;;;;;;18.94;83.68;101028.81;4879570;29;20462;-69
2023/10/10 11:16:46;;;;;;;11.93;4.80;;;;;;;18.97;79.05;101013.53;4879587;29;20188;-69
2023/10/10 11:19:55;;;;;;;10.68;5.95;;;;;;;19.09;85.95;101016.16;4879555;29;20086;-70
2023/10/10 11:23:12;;;;;;;8.30;4.63;;;;;;;19.17;78.19;101013.72;4879943;29;20060;-70
2023/10/10 11:26:15;;;;;;;11.27;5.82;;;;;;;19.29;77.42;101005.63;4879606;29;20092;-72
2023/10/10 11:29:29;;;;;;;11.85;5.80;;;;;;;19.39;77.44;101004.88;4879503;29;20040;-70
2023/10/10 11:32:47;;;;;;;8.63;4.90;;;;;;;19.71;71.22;100995.13;4879336;29;20051;-70
2023/10/10 11:36:01;;;;;;;10.35;4.35;;;;;;;19.70;69.71;100995.28;4879297;29;20075;-71
2023/10/10 11:39:23;;;;;;;11.13;4.93;;;;;;;19.71;71.54;100995.13;4878865;29;20409;-73
2023/10/10 11:42:33;;;;;;;10.02;4.68;;;;;;;19.80;68.16;100995.34;4879337;29;20520;-71
2023/10/10 11:45:39;;;;;;;10.65;4.78;;;;;;;19.81;77.57;100989.06;4879215;29;20067;-69
2023/10/10 11:48:42;;;;;;;14.88;4.13;;;;;;;19.69;74.04;100989.13;4879082;29;20234;-70
2023/10/10 11:51:46;;;;;;;17.05;4.95;;;;;;;19.76;75.35;100983.31;4867565;29;20052;-71
2023/10/10 11:54:49;;;;;;;8.82;4.20;;;;;;;19.87;67.76;100980.59;4878938;29;20056;-70
2023/10/10 11:58:06;;;;;;;11.82;4.65;;;;;;;19.91;80.14;100982.00;4878807;29;20129;-70
2023/10/10 12:01:12;;;;;;;9.35;4.47;;;;;;;19.98;74.51;100972.56;4876928;29;20056;-71
2023/10/10 12:04:31;;;;;;;8.98;4.55;;;;;;;20.04;71.28;100972.06;4877695;29;20059;-70
2023/10/10 12:07:40;;;;;;;13.40;5.47;;;;;;;20.29;65.79;100956.66;4878374;29;20056;-71
2023/10/10 12:10:52;;;;;;;9.63;5.00;;;;;;;20.36;69.09;100965.78;4878806;29;20080;-69
2023/10/10 12:13:56;;;;;;;6.93;4.32;;;;;;;20.58;63.49;100960.31;4878678;29;20051;-69
2023/10/10 12:17:05;;;;;;;9.23;4.40;;;;;;;20.90;62.51;100951.31;4878677;29;20048;-70
2023/10/10 12:20:08;;;;;;;8.52;4.40;;;;;;;20.93;61.03;100940.44;4878696;29;20055;-70
2023/10/10 12:23:12;;;;;;;8.40;4.35;;;;;;;21.02;71.05;100944.06;4878960;29;20064;-70
2023/10/10 12:26:18;;;;;;;11.60;5.40;;;;;;;20.99;66.73;100942.50;4879332;29;20629;-73
2023/10/10 12:29:22;;;;;;;7.80;4.15;;;;;;;21.11;68.08;100943.22;4866979;29;20092;-71
2023/10/10 12:32:26;;;;;;;7.05;4.25;;;;;;;21.34;65.84;100935.81;4878516;29;20259;-70
2023/10/10 12:35:30;;;;;;;11.07;4.57;;;;;;;21.39;61.03;100932.78;4878353;29;20298;-71
2023/10/10 12:38:34;;;;;;;9.70;4.15;;;;;;;21.34;66.78;100930.50;4878020;29;20052;-71
2023/10/10 12:41:45;;;;;;;9.68;3.92;;;;;;;21.49;66.60;100923.81;4878859;29;20402;-71
2023/10/10 12:44:48;;;;;;;7.38;4.28;;;;;;;21.93;58.33;100920.66;4878477;29;20113;-71
2023/10/10 12:47:53;;;;;;;9.68;3.75;;;;;;;22.29;53.22;100916.38;4878157;29;20049;-71
2023/10/10 12:51:00;;;;;;;11.07;4.75;;;;;;;22.71;50.81;100921.19;4877687;29;20116;-66
2023/10/10 12:54:05;;;;;;;13.55;5.53;;;;;;;23.34;50.91;100917.69;4878366;29;20108;-65
2023/10/10 12:57:14;;;;;;;18.23;4.65;;;;;;;24.51;46.10;100907.47;4877853;29;20051;-71
2023/10/10 13:00:24;;;;;;;11.77;4.15;;;;;;;25.51;40.82;100910.16;4876396;29;20108;-71
2023/10/10 13:03:30;;;;;;;7.95;3.40;;;;;;;26.20;41.18;100900.66;4876974;29;20091;-71
2023/10/10 13:06:35;;;;;;;5.13;3.55;;;;;;;25.46;40.10;100896.44;4877390;29;20051;-71
2023/10/10 13:09:43;;;;;;;11.15;3.85;;;;;;;25.73;45.41;100901.44;4877642;29;20104;-71
2023/10/10 13:12:51;;;;;;;9.35;4.85;;;;;;;25.55;46.12;100894.59;4877374;29;20056;-71
2023/10/10 13:16:07;;;;;;;10.60;4.47;;;;;;;25.13;47.75;100888.41;4877760;29;20425;-71
2023/10/10 13:19:11;;;;;;;7.75;3.53;;;;;;;23.45;50.20;100888.09;4877629;29;20040;-71
2023/10/10 13:22:20;;;;;;;8.00;3.85;;;;;;;23.25;53.23;100898.09;4877460;29;20153;-71
2023/10/10 13:25:24;;;;;;;9.38;3.90;;;;;;;23.04;55.55;100895.75;4877695;29;20064;-71
2023/10/10 13:28:27;;;;;;;10.13;4.57;;;;;;;22.70;55.74;100895.53;4877476;29;20089;-71
2023/10/10 13:31:31;;;;;;;8.70;4.20;;;;;;;22.62;55.94;100890.09;4876241;29;20047;-71
2023/10/10 13:34:37;;;;;;;7.10;3.95;;;;;;;22.30;57.50;100891.41;4865644;29;20059;-71
2023/10/10 13:37:43;;;;;;;10.18;4.35;;;;;;;22.19;57.95;100886.28;4877424;29;20216;-71
2023/10/10 13:40:48;;;;;;;6.38;3.75;;;;;;;22.10;57.88;100887.13;4877616;29;20047;-71
2023/10/10 13:43:52;;;;;;;8.60;4.00;;;;;;;22.12;57.80;100890.47;4877548;29;20101;-71
2023/10/10 13:46:55;;;;;;;6.45;3.80;;;;;;;22.03;55.10;100889.53;4877479;29;20044;-71
2023/10/10 13:50:28;;;;;;;8.73;4.57;;;;;;;22.37;55.19;100884.50;4877387;29;20056;-71
2023/10/10 13:53:22;;;;;;;9.98;4.35;;;;;;;22.35;52.28;100878.47;4877376;29;20081;-71
2023/10/10 13:56:30;;;;;;;8.98;3.50;;;;;;;22.67;51.97;100878.00;4877389;29;20073;-71
2023/10/10 13:59:34;;;;;;;6.53;4.05;;;;;;;22.61;51.71;100883.94;4877453;29;20101;-71
2023/10/10 14:02:39;;;;;;;17.60;4.45;;;;;;;22.74;52.65;100875.59;4877880;29;20553;-71
2023/10/10 14:06:00;;;;;;;6.72;3.92;;;;;;;22.83;53.37;100877.34;4881018;29;20129;-71
2023/10/10 14:09:03;;;;;;;8.13;3.85;;;;;;;23.03;52.28;100872.72;4880862;29;20562;-71
2023/10/10 14:12:08;;;;;;;13.70;5.78;;;;;;;22.90;52.99;100878.41;4879352;29;20060;-71
2023/10/10 14:15:11;;;;;;;6.88;3.80;;;;;;;22.96;50.84;100882.34;4880904;29;20417;-71
2023/10/10 14:18:15;;;;;;;6.70;3.63;;;;;;;22.48;52.58;100878.97;4880638;29;20067;-71
2023/10/10 14:21:27;;;;;;;7.72;4.18;;;;;;;22.63;49.85;100875.81;4880870;29;20048;-70
2023/10/10 14:24:30;;;;;;;9.65;4.15;;;;;;;22.42;52.75;100874.22;4880915;29;20072;-70
2023/10/10 14:27:34;;;;;;;7.88;3.75;;;;;;;22.24;53.79;100871.53;4880816;29;20132;-71
2023/10/10 14:30:37;;;;;;;8.82;4.40;;;;;;;22.45;53.54;100865.94;4880546;29;20413;-70
2023/10/10 14:33:41;;;;;;;9.50;4.07;;;;;;;22.74;52.68;100856.91;4880500;29;20052;-69
2023/10/10 14:36:45;;;;;;;10.73;4.40;;;;;;;22.40;53.11;100860.25;4880491;29;20101;-70
2023/10/10 14:39:51;;;;;;;8.57;4.35;;;;;;;22.77;53.06;100861.13;4880703;29;20585;-68
2023/10/10 14:42:54;;;;;;;11.00;4.85;;;;;;;22.90;52.61;100862.41;4880365;29;20092;-68
2023/10/10 14:45:58;;;;;;;8.60;4.78;;;;;;;22.90;53.72;100861.56;4880141;29;20105;-69
2023/10/10 14:49:06;;;;;;;7.03;3.88;;;;;;;22.67;53.72;100866.53;4880158;29;20505;-68
2023/10/10 14:52:10;;;;;;;11.57;4.68;;;;;;;22.81;53.98;100855.31;4880134;29;20157;-67
2023/10/10 14:55:24;;;;;;;8.55;4.78;;;;;;;23.57;52.03;100848.66;4880022;29;20467;-71
2023/10/10 14:58:27;;;;;;;10.68;3.70;;;;;;;23.42;51.16;100846.56;4879952;29;20617;-71
2023/10/10 15:01:37;;;;;;;5.65;3.58;;;;;;;22.10;55.07;100848.00;4879822;29;20412;-71
2023/10/10 15:04:41;;;;;;;14.43;5.82;;;;;;;21.44;57.47;100851.59;4868616;29;20056;-71
2023/10/10 15:07:45;;;;;;;12.98;4.72;;;;;;;20.81;60.10;100856.47;4879983;29;20470;-71
2023/10/10 15:10:51;;;;;;;10.65;7.15;;;;;;;20.39;61.60;100853.97;4879728;29;20521;-71
2023/10/10 15:13:55;;;;;;;8.50;4.93;;;;;;;20.35;62.39;100848.06;4860140;29;20057;-71
2023/10/10 15:17:00;;;;;;;11.32;5.00;;;;;;;20.08;63.56;100839.91;4861381;29;20128;-71
2023/10/10 15:20:11;;;;;;;13.48;5.10;;;;;;;19.65;66.41;100857.69;4861602;29;20051;-70
2023/10/10 15:23:20;;;;;;;12.23;4.72;;;;;;;19.70;65.60;100852.84;4861119;29;20472;-69
2023/10/10 15:26:36;;;;;;;13.23;5.32;;;;;;;19.52;67.11;100854.38;4860879;29;20528;-71
2023/10/10 15:29:42;;;;;;;10.18;5.72;;;;;;;19.47;67.86;100856.59;4861390;29;20588;-69
2023/10/10 15:32:46;;;;;;;17.85;7.00;;;;;;;19.34;67.87;100856.78;4860785;29;20096;-70
2023/10/10 15:35:52;;;;;;;12.80;5.57;;;;;;;19.21;69.09;100850.81;4860692;29;20052;-70
2023/10/10 15:39:04;;;;;;;12.05;4.78;;;;;;;19.20;69.33;100860.56;4860574;29;20069;-70
2023/10/10 15:42:07;;;;;;;;;;;;;;;19.08;69.65;100858.97;4861132;29;20364;-69
2023/10/10 15:45:10;;;;;;;8.45;4.35;;;;;;;18.94;70.45;100859.25;4861364;29;19928;-74
2023/10/10 15:48:23;;;;;;;12.07;4.47;;;;;;;18.94;70.65;100856.59;4861230;29;20513;-74
2023/10/10 15:51:30;;;;;;;9.90;4.55;;;;;;;18.82;71.16;100850.47;4860563;29;20521;-68
2023/10/10 15:54:36;;;;;;;12.82;4.47;;;;;;;18.75;71.79;100855.44;4860323;29;20143;-68
2023/10/10 15:57:39;;;;;;;12.68;5.70;;;;;;;18.55;72.28;100859.66;4860108;29;20070;-68
2023/10/10 16:00:43;;;;;;;10.05;5.45;;;;;;;18.50;73.24;100869.78;4859315;29;20070;-68
2023/10/10 16:03:51;;;;;;;8.68;4.78;;;;;;;18.39;74.73;100874.28;4859982;29;20048;-68
2023/10/10 16:06:55;;;;;;;12.85;5.45;;;;;;;18.30;75.41;100866.09;4860102;29;20558;-68
2023/10/10 16:09:58;;;;;;;8.38;4.25;;;;;;;18.23;76.09;100875.47;4860167;29;20117;-69
2023/10/10 16:13:02;;;;;;;13.73;4.50;;;;;;;18.10;76.57;100872.13;4875712;29;20087;-70
2023/10/10 16:16:06;;;;;;;15.73;4.88;;;;;;;17.91;77.59;100877.16;4879120;29;20063;-68
2023/10/10 16:19:14;;;;;;;10.88;4.18;;;;;;;17.79;77.70;100877.13;4878940;29;20060;-69
2023/10/10 16:22:18;;;;;;;6.55;4.03;;;;;;;17.72;78.56;100875.06;4878901;29;20137;-67
2023/10/10 16:25:23;;;;;;;8.43;4.82;;;;;;;17.64;79.10;100883.56;4878263;29;20043;-70
2023/10/10 16:28:26;;;;;;;11.70;4.82;;;;;;;17.40;80.17;100883.63;4878719;29;20096;-68
2023/10/10 16:31:32;;;;;;;12.60;5.13;;;;;;;17.33;81.22;100880.59;4878636;29;20112;-67
2023/10/10 16:34:36;;;;;;;13.00;4.65;;;;;;;17.37;81.12;100881.22;4878966;29;20481;-68
2023/10/10 16:37:40;;;;;;;14.20;3.80;;;;;;;17.16;82.05;100883.66;4878469;29;20135;-67
2023/10/10 16:40:43;;;;;;;13.32;4.60;;;;;;;16.97;82.94;100886.81;4878807;29;20047;-66
2023/10/10 16:43:47;;;;;;;10.15;4.35;;;;;;;16.92;83.38;100887.16;4878666;29;20052;-70